Time;durP1;ratioP1;P1;durP2;ratioP2;P2;SDS_P1;SDS_P2;PMS_P1;PMS_P2;Temp;Humidity;BMP_temperature;BMP_pressure;BME280_temperature;BME280_humidity;BME280_pressure;Samples;Min_cycle;Max_cycle;Signal;HPM_P1;HPM_P2
2022/09/30 00:00:25;;;;;;;3.08;1.40;;;8.70;99.90;;;;;;5019429;28;20029;-81
2022/09/30 00:02:51;;;;;;;4.28;1.27;;;8.70;99.90;;;;;;5017286;28;20506;-80
2022/09/30 00:05:17;;;;;;;5.07;1.40;;;8.70;99.90;;;;;;5019151;28;20040;-80
2022/09/30 00:07:42;;;;;;;2.08;1.10;;;8.70;99.90;;;;;;5010663;28;20026;-80
2022/09/30 00:10:08;;;;;;;2.78;1.27;;;8.70;99.90;;;;;;5017293;28;20037;-80
2022/09/30 00:12:33;;;;;;;3.65;1.67;;;8.70;99.90;;;;;;5033357;28;20018;-80
2022/09/30 00:14:59;;;;;;;4.43;1.40;;;8.70;99.90;;;;;;5009339;28;20041;-80
2022/09/30 00:17:25;;;;;;;2.53;1.15;;;8.70;99.90;;;;;;5011236;28;20026;-80
2022/09/30 00:19:50;;;;;;;2.92;1.40;;;8.70;99.90;;;;;;5018160;28;20022;-80
2022/09/30 00:22:16;;;;;;;3.03;1.35;;;8.70;99.90;;;;;;5020675;28;20024;-80
2022/09/30 00:24:41;;;;;;;2.80;1.50;;;8.70;99.90;;;;;;5013118;28;20111;-80
2022/09/30 00:27:07;;;;;;;3.85;1.55;;;8.80;99.90;;;;;;5013957;28;20041;-80
2022/09/30 00:29:32;;;;;;;7.32;1.63;;;8.80;99.90;;;;;;5031951;28;20034;-80
2022/09/30 00:31:58;;;;;;;4.00;1.73;;;8.80;99.90;;;;;;5017338;28;20022;-80
2022/09/30 00:34:24;;;;;;;3.30;1.58;;;8.80;99.90;;;;;;5017160;28;20029;-80
2022/09/30 00:36:51;;;;;;;3.13;1.63;;;8.80;99.90;;;;;;5011593;28;20532;-80
2022/09/30 00:39:22;;;;;;;4.15;1.80;;;8.80;99.90;;;;;;5010029;28;20028;-80
2022/09/30 00:41:51;;;;;;;5.78;1.30;;;8.80;99.90;;;;;;5015136;28;20503;-80
2022/09/30 00:44:43;;;;;;;3.45;1.73;;;8.80;99.90;;;;;;5017761;28;20014;-80
2022/09/30 00:47:27;;;;;;;5.13;1.90;;;8.80;99.90;;;;;;5015696;28;20030;-80
2022/09/30 00:49:56;;;;;;;2.97;1.48;;;8.80;99.90;;;;;;5016088;28;20148;-80
2022/09/30 00:52:22;;;;;;;6.70;1.27;;;8.80;99.90;;;;;;5031814;28;20029;-80
2022/09/30 00:54:49;;;;;;;3.63;1.33;;;8.80;99.90;;;;;;5032663;28;20087;-80
2022/09/30 00:57:15;;;;;;;4.07;1.45;;;8.90;99.90;;;;;;5009223;28;20025;-80
2022/09/30 00:59:46;;;;;;;5.25;1.65;;;8.90;99.90;;;;;;5030649;28;20022;-80
2022/09/30 01:02:13;;;;;;;3.40;1.17;;;8.90;99.90;;;;;;5006122;28;20060;-79
2022/09/30 01:04:42;;;;;;;3.92;1.65;;;8.90;99.90;;;;;;5009688;28;20040;-80
2022/09/30 01:07:08;;;;;;;4.57;1.42;;;8.90;99.90;;;;;;5031638;28;20018;-80
2022/09/30 01:09:37;;;;;;;4.07;1.63;;;9.00;99.90;;;;;;5011387;28;20082;-80
2022/09/30 01:12:10;;;;;;;5.80;2.15;;;8.90;99.90;;;;;;5022652;28;20093;-80
2022/09/30 01:14:36;;;;;;;2.58;1.27;;;8.90;99.90;;;;;;5024456;28;20030;-80
2022/09/30 01:17:31;;;;;;;3.47;1.42;;;8.90;99.90;;;;;;5008975;28;20099;-80
2022/09/30 01:20:25;;;;;;;4.90;1.48;;;9.00;99.90;;;;;;5007007;28;20033;-80
2022/09/30 01:23:13;;;;;;;4.40;1.38;;;8.90;99.90;;;;;;5022021;28;20032;-80
2022/09/30 01:25:48;;;;;;;4.35;1.63;;;8.90;99.90;;;;;;5015817;28;20060;-80
2022/09/30 01:28:25;;;;;;;3.40;1.52;;;8.90;99.90;;;;;;5012543;28;20018;-80
2022/09/30 01:30:54;;;;;;;5.55;1.45;;;9.00;99.90;;;;;;5030564;28;20099;-80
2022/09/30 01:33:40;;;;;;;4.90;1.80;;;9.00;99.90;;;;;;5013245;28;20037;-80
2022/09/30 01:36:14;;;;;;;5.35;2.08;;;8.90;99.90;;;;;;5008515;28;20030;-80
2022/09/30 01:38:50;;;;;;;4.97;2.05;;;9.00;99.90;;;;;;5020245;28;20048;-80
2022/09/30 01:41:44;;;;;;;5.50;1.80;;;8.90;99.90;;;;;;5004900;28;20078;-80
2022/09/30 01:44:13;;;;;;;5.05;2.20;;;9.00;99.90;;;;;;5011581;28;20034;-80
2022/09/30 01:47:00;;;;;;;6.80;1.80;;;9.00;99.90;;;;;;5007634;28;20026;-80
2022/09/30 01:49:39;;;;;;;5.28;1.70;;;9.00;99.90;;;;;;5008428;28;20018;-80
2022/09/30 01:52:19;;;;;;;2.95;1.35;;;8.90;99.90;;;;;;5005936;28;20042;-80
2022/09/30 01:54:54;;;;;;;4.95;1.77;;;8.90;99.90;;;;;;5013077;28;20052;-82
2022/09/30 01:57:34;;;;;;;4.10;1.52;;;8.80;99.90;;;;;;5004601;28;20407;-81
2022/09/30 02:00:08;;;;;;;4.45;1.88;;;8.80;99.90;;;;;;5011809;28;20023;-81
2022/09/30 02:02:42;;;;;;;5.88;1.90;;;8.80;99.90;;;;;;5018255;28;20108;-82
2022/09/30 02:05:14;;;;;;;3.60;1.50;;;8.70;99.90;;;;;;5001369;28;20089;-81
2022/09/30 02:07:59;;;;;;;4.25;1.67;;;8.50;99.90;;;;;;5010993;28;20026;-81
2022/09/30 02:10:30;;;;;;;3.03;1.40;;;8.40;99.90;;;;;;5006607;28;20390;-81
2022/09/30 02:13:03;;;;;;;6.97;2.10;;;8.30;99.90;;;;;;5008929;28;20044;-81
2022/09/30 02:15:35;;;;;;;4.15;1.90;;;8.30;99.90;;;;;;5014202;28;20014;-81
2022/09/30 02:18:09;;;;;;;4.55;2.15;;;8.30;99.90;;;;;;5013109;28;20406;-81
2022/09/30 02:20:39;;;;;;;3.97;2.00;;;8.30;99.90;;;;;;5012620;28;20084;-81
2022/09/30 02:23:14;;;;;;;4.90;2.10;;;8.30;99.90;;;;;;5029631;28;20037;-81
2022/09/30 02:25:51;;;;;;;4.28;1.75;;;8.30;99.90;;;;;;5026308;28;20022;-81
2022/09/30 02:28:26;;;;;;;6.50;2.03;;;8.40;99.90;;;;;;5029131;28;20037;-81
2022/09/30 02:30:55;;;;;;;3.63;1.80;;;8.40;99.90;;;;;;5014900;28;20025;-81
2022/09/30 02:33:35;;;;;;;3.42;2.10;;;8.40;99.90;;;;;;5021620;28;20077;-81
2022/09/30 02:36:07;;;;;;;4.25;1.63;;;8.50;99.90;;;;;;5020158;28;20045;-81
2022/09/30 02:38:39;;;;;;;3.75;1.88;;;8.50;99.90;;;;;;5022514;28;20026;-81
2022/09/30 02:41:10;;;;;;;4.28;1.50;;;8.50;99.90;;;;;;5036680;28;20525;-81
2022/09/30 02:43:40;;;;;;;4.38;1.92;;;8.50;99.90;;;;;;5022412;28;20053;-81
2022/09/30 02:46:21;;;;;;;4.95;2.33;;;8.50;99.90;;;;;;5020600;28;20053;-81
2022/09/30 02:49:05;;;;;;;3.97;1.90;;;8.60;99.90;;;;;;5015787;28;20021;-81
2022/09/30 02:51:58;;;;;;;9.02;2.20;;;8.50;99.90;;;;;;5021202;28;20121;-81
2022/09/30 02:54:34;;;;;;;3.22;1.50;;;8.50;99.90;;;;;;5014639;28;20030;-82
2022/09/30 02:57:25;;;;;;;5.60;1.92;;;8.50;99.90;;;;;;5020734;28;20028;-81
2022/09/30 02:59:51;;;;;;;5.70;2.13;;;8.50;99.90;;;;;;5030899;28;20021;-81
2022/09/30 03:02:19;;;;;;;3.88;2.30;;;8.50;99.90;;;;;;5013460;28;20386;-81
2022/09/30 03:04:46;;;;;;;4.38;1.85;;;8.50;99.90;;;;;;5015953;28;20022;-81
2022/09/30 03:07:12;;;;;;;3.70;1.73;;;8.40;99.90;;;;;;5027221;28;20018;-81
2022/09/30 03:09:38;;;;;;;6.05;2.50;;;8.50;99.90;;;;;;5009693;28;20022;-81
2022/09/30 03:12:24;;;;;;;4.28;2.28;;;8.50;99.90;;;;;;5011651;28;20029;-81
2022/09/30 03:15:04;;;;;;;5.85;2.17;;;8.50;99.90;;;;;;5015118;28;20513;-81
2022/09/30 03:18:08;;;;;;;6.55;2.17;;;8.50;99.90;;;;;;5027826;28;20121;-80
2022/09/30 03:20:45;;;;;;;7.03;2.22;;;8.50;99.90;;;;;;4969621;28;20030;-80
2022/09/30 03:23:17;;;;;;;6.75;2.40;;;8.50;99.90;;;;;;5016486;28;22421;-80
2022/09/30 03:25:55;;;;;;;4.00;1.95;;;8.50;99.90;;;;;;5010267;28;20018;-80
2022/09/30 03:28:33;;;;;;;5.70;1.90;;;8.50;99.90;;;;;;5010582;28;20031;-80
2022/09/30 03:31:09;;;;;;;4.13;1.95;;;8.50;99.90;;;;;;5010743;28;20395;-79
2022/09/30 03:33:51;;;;;;;3.97;1.80;;;8.50;99.90;;;;;;5024847;28;20025;-80
2022/09/30 03:36:35;;;;;;;5.40;2.30;;;8.50;99.90;;;;;;5015267;28;20045;-80
2022/09/30 03:39:02;;;;;;;5.00;2.20;;;8.50;99.90;;;;;;5022454;28;20285;-80
2022/09/30 03:41:54;;;;;;;4.30;2.20;;;8.60;99.90;;;;;;5027681;28;20037;-80
2022/09/30 03:44:31;;;;;;;4.18;2.03;;;8.50;99.90;;;;;;5008584;28;20027;-80
2022/09/30 03:47:02;;;;;;;6.18;1.92;;;8.50;99.90;;;;;;5013088;28;20061;-81
2022/09/30 03:49:34;;;;;;;5.30;1.98;;;8.50;99.90;;;;;;5010830;28;20026;-80
2022/09/30 03:52:06;;;;;;;5.90;2.78;;;8.50;99.90;;;;;;5028500;28;20480;-80
2022/09/30 03:54:32;;;;;;;3.67;1.80;;;8.50;99.90;;;;;;5008973;28;20439;-81
2022/09/30 03:57:04;;;;;;;4.70;2.08;;;8.50;99.90;;;;;;5029283;28;20030;-79
2022/09/30 03:59:29;;;;;;;3.60;1.70;;;8.50;99.90;;;;;;5027127;28;20040;-80
2022/09/30 04:01:56;;;;;;;4.30;1.85;;;8.50;99.90;;;;;;5019233;28;20030;-80
2022/09/30 04:04:22;;;;;;;4.07;1.75;;;8.50;99.90;;;;;;5031512;28;20038;-80
2022/09/30 04:06:48;;;;;;;4.25;1.85;;;8.50;99.90;;;;;;5008769;28;20025;-79
2022/09/30 04:09:13;;;;;;;5.13;2.10;;;8.40;99.90;;;;;;5015867;28;20034;-82
2022/09/30 04:11:39;;;;;;;7.85;1.92;;;8.40;99.90;;;;;;5015461;28;20398;-80
2022/09/30 04:14:05;;;;;;;5.95;2.40;;;8.40;99.90;;;;;;5017561;28;20160;-80
2022/09/30 04:16:31;;;;;;;4.85;2.20;;;8.40;99.90;;;;;;5029514;28;20021;-80
2022/09/30 04:18:57;;;;;;;4.78;2.10;;;8.40;99.90;;;;;;5016107;28;20110;-80
2022/09/30 04:21:23;;;;;;;5.05;2.10;;;8.40;99.90;;;;;;5015433;28;20053;-80
2022/09/30 04:23:49;;;;;;;6.25;2.20;;;8.40;99.90;;;;;;5033515;28;20405;-80
2022/09/30 04:26:18;;;;;;;5.72;2.22;;;8.30;99.90;;;;;;5015724;28;20125;-80
2022/09/30 04:28:45;;;;;;;5.47;2.15;;;8.30;99.90;;;;;;5007800;28;20097;-81
2022/09/30 04:31:12;;;;;;;5.68;2.20;;;8.30;99.90;;;;;;5016852;28;20077;-80
2022/09/30 04:33:38;;;;;;;4.55;2.10;;;8.20;99.90;;;;;;5035210;28;20026;-80
2022/09/30 04:36:04;;;;;;;5.00;1.90;;;8.20;99.90;;;;;;5017737;28;20042;-80
2022/09/30 04:38:30;;;;;;;4.32;2.05;;;8.10;99.90;;;;;;5017780;28;20038;-80
2022/09/30 04:40:56;;;;;;;4.68;2.00;;;8.30;99.90;;;;;;5016543;28;20115;-80
2022/09/30 04:43:23;;;;;;;4.35;2.08;;;8.00;99.90;;;;;;5015691;28;20112;-80
2022/09/30 04:45:51;;;;;;;3.20;1.50;;;8.00;99.90;;;;;;5016656;28;20026;-80
2022/09/30 04:48:17;;;;;;;5.00;2.08;;;7.90;99.90;;;;;;5031363;28;20458;-80
2022/09/30 04:50:43;;;;;;;4.15;1.92;;;7.80;99.90;;;;;;5029333;28;20026;-80
2022/09/30 04:53:11;;;;;;;4.50;1.83;;;7.80;99.90;;;;;;5015215;28;20017;-81
2022/09/30 04:55:37;;;;;;;5.05;2.17;;;7.80;99.90;;;;;;5017714;28;20114;-80
2022/09/30 04:58:03;;;;;;;4.70;2.55;;;7.80;99.90;;;;;;5015963;28;20050;-80
2022/09/30 05:00:29;;;;;;;6.78;2.72;;;7.70;99.90;;;;;;5011507;28;20069;-80
2022/09/30 05:02:55;;;;;;;7.22;2.78;;;7.80;99.90;;;;;;5023615;28;20395;-79
2022/09/30 05:05:20;;;;;;;7.20;3.00;;;7.80;99.90;;;;;;5014435;28;20026;-80
2022/09/30 05:07:46;;;;;;;5.93;2.55;;;7.80;99.90;;;;;;5006466;28;20060;-80
2022/09/30 05:10:12;;;;;;;8.65;2.40;;;7.80;99.90;;;;;;5026304;28;20112;-80
2022/09/30 05:12:39;;;;;;;6.33;2.67;;;7.70;99.90;;;;;;5027668;28;20637;-80
2022/09/30 05:15:06;;;;;;;4.75;1.80;;;7.70;99.90;;;;;;5012763;28;20048;-80
2022/09/30 05:17:31;;;;;;;9.43;2.78;;;7.70;99.90;;;;;;5012153;28;20021;-80
2022/09/30 05:19:57;;;;;;;7.85;2.78;;;7.70;99.90;;;;;;5009173;28;20028;-80
2022/09/30 05:22:24;;;;;;;5.38;2.58;;;7.70;99.90;;;;;;5009355;28;20053;-80
2022/09/30 05:24:50;;;;;;;6.93;2.47;;;7.70;99.90;;;;;;5009933;28;20389;-80
2022/09/30 05:27:16;;;;;;;4.07;2.20;;;7.70;99.90;;;;;;5011350;28;20018;-80
2022/09/30 05:29:42;;;;;;;6.35;2.45;;;7.70;99.90;;;;;;5011271;28;20049;-81
2022/09/30 05:32:08;;;;;;;6.72;2.10;;;7.80;99.90;;;;;;5011945;28;20045;-80
2022/09/30 05:34:34;;;;;;;4.38;2.10;;;7.70;99.90;;;;;;5011180;28;20026;-81
2022/09/30 05:36:59;;;;;;;5.03;2.33;;;7.70;99.90;;;;;;5011929;28;20080;-81
2022/09/30 05:39:25;;;;;;;6.65;2.17;;;7.60;99.90;;;;;;5010191;28;20107;-81
2022/09/30 05:41:51;;;;;;;7.35;2.92;;;7.60;99.90;;;;;;5010247;28;20033;-81
2022/09/30 05:44:16;;;;;;;3.40;1.65;;;7.60;99.90;;;;;;5026947;28;20034;-81
2022/09/30 05:46:43;;;;;;;5.15;2.20;;;7.60;99.90;;;;;;5012477;28;20022;-81
2022/09/30 05:49:08;;;;;;;6.43;2.30;;;7.50;99.90;;;;;;5025006;28;20033;-81
2022/09/30 05:51:35;;;;;;;4.43;2.03;;;7.60;99.90;;;;;;5009942;28;20034;-81
2022/09/30 05:54:00;;;;;;;5.30;2.60;;;7.60;99.90;;;;;;5001846;28;20062;-81
2022/09/30 05:56:26;;;;;;;3.95;1.90;;;7.60;99.90;;;;;;5010360;28;20054;-82
2022/09/30 05:58:52;;;;;;;4.77;2.13;;;7.60;99.90;;;;;;5002378;28;20045;-81
2022/09/30 06:01:17;;;;;;;5.55;2.58;;;7.60;99.90;;;;;;5005341;28;20030;-81
2022/09/30 06:03:45;;;;;;;4.57;1.90;;;7.60;99.90;;;;;;5014449;28;20038;-82
2022/09/30 06:06:11;;;;;;;6.13;1.45;;;7.60;99.90;;;;;;5016944;28;20468;-81
2022/09/30 06:08:37;;;;;;;6.68;2.50;;;7.60;99.90;;;;;;5009982;28;20033;-81
2022/09/30 06:11:11;;;;;;;5.87;1.83;;;7.60;99.90;;;;;;5012946;28;20550;-81
2022/09/30 06:13:38;;;;;;;3.58;1.60;;;7.60;99.90;;;;;;5015636;28;20045;-81
2022/09/30 06:16:04;;;;;;;3.95;1.67;;;7.60;99.90;;;;;;5010919;28;20485;-81
2022/09/30 06:18:30;;;;;;;4.47;1.80;;;7.50;99.90;;;;;;5022914;28;20037;-81
2022/09/30 06:20:57;;;;;;;5.07;2.10;;;7.60;99.90;;;;;;5005809;28;20031;-81
2022/09/30 06:23:23;;;;;;;4.18;1.73;;;7.60;99.90;;;;;;5025820;28;20034;-81
2022/09/30 06:25:50;;;;;;;9.27;2.17;;;7.60;99.90;;;;;;5014965;28;20081;-81
2022/09/30 06:28:16;;;;;;;4.88;1.90;;;7.60;99.90;;;;;;5013089;28;20025;-81
2022/09/30 06:30:46;;;;;;;5.43;1.40;;;7.70;99.90;;;;;;5030144;28;20480;-81
2022/09/30 06:33:13;;;;;;;3.25;1.60;;;7.70;99.90;;;;;;5010289;28;20023;-81
2022/09/30 06:35:42;;;;;;;7.23;2.07;;;7.70;99.90;;;;;;5012070;28;20040;-81
2022/09/30 06:38:08;;;;;;;5.32;2.28;;;7.80;99.90;;;;;;5007684;28;20104;-81
2022/09/30 06:40:34;;;;;;;4.05;1.85;;;7.90;99.90;;;;;;5008352;28;20560;-82
2022/09/30 06:43:00;;;;;;;4.43;1.90;;;8.00;99.90;;;;;;5015637;28;20109;-81
2022/09/30 06:45:28;;;;;;;4.53;1.98;;;8.00;99.90;;;;;;5012500;28;20030;-81
2022/09/30 06:47:58;;;;;;;3.22;1.38;;;8.10;99.90;;;;;;5011840;28;20610;-81
2022/09/30 06:50:24;;;;;;;4.55;2.17;;;8.30;99.90;;;;;;5013054;28;20048;-81
2022/09/30 06:52:50;;;;;;;4.45;1.98;;;8.30;99.90;;;;;;5014189;28;20022;-81
2022/09/30 06:55:23;;;;;;;3.72;1.70;;;8.40;99.90;;;;;;5014506;28;20064;-81
2022/09/30 06:57:48;;;;;;;6.95;1.65;;;8.40;99.90;;;;;;5082234;22;20624;-88
2022/09/30 07:00:15;;;;;;;4.32;2.20;;;9.10;99.90;;;;;;5026541;28;20028;-87
2022/09/30 07:02:42;;;;;;;4.88;2.22;;;8.40;99.90;;;;;;4998197;28;20022;-88
2022/09/30 07:05:08;;;;;;;5.32;2.13;;;8.90;99.90;;;;;;5003877;28;20034;-87
2022/09/30 07:07:35;;;;;;;4.30;1.63;;;8.40;99.90;;;;;;5010355;28;20045;-88
2022/09/30 07:10:01;;;;;;;5.50;2.55;;;8.40;99.90;;;;;;5028443;28;20080;-87
2022/09/30 07:12:27;;;;;;;6.05;2.90;;;8.70;99.90;;;;;;5026398;28;20536;-87
2022/09/30 07:14:54;;;;;;;6.75;2.33;;;8.40;99.90;;;;;;5006458;28;20136;-87
2022/09/30 07:17:20;;;;;;;6.70;2.38;;;8.40;99.90;;;;;;5012373;28;20025;-88
2022/09/30 07:19:45;;;;;;;7.82;3.00;;;8.30;99.90;;;;;;5032481;28;20025;-86
2022/09/30 07:22:27;;;;;;;6.28;2.72;;;8.40;99.90;;;;;;5015075;28;20438;-87
2022/09/30 07:24:53;;;;;;;7.82;2.72;;;8.60;99.90;;;;;;5003430;28;20427;-86
2022/09/30 07:27:19;;;;;;;6.72;2.70;;;8.50;99.90;;;;;;5029567;28;20466;-87
2022/09/30 07:29:45;;;;;;;6.35;2.78;;;8.50;99.90;;;;;;5018624;28;20105;-87
2022/09/30 07:32:11;;;;;;;6.72;2.75;;;8.50;99.90;;;;;;5011907;28;20113;-87
2022/09/30 07:34:41;;;;;;;9.48;2.97;;;8.60;99.90;;;;;;5007134;28;20486;-87
2022/09/30 07:37:08;;;;;;;7.55;2.70;;;8.60;99.90;;;;;;5013553;28;20254;-87
2022/09/30 07:39:34;;;;;;;6.53;3.17;;;8.70;99.90;;;;;;5009418;28;20033;-87
2022/09/30 07:42:01;;;;;;;5.97;2.58;;;8.60;99.90;;;;;;5004933;28;20398;-87
2022/09/30 07:44:28;;;;;;;7.35;3.17;;;8.60;99.90;;;;;;5023522;28;20032;-87
2022/09/30 07:46:54;;;;;;;6.45;2.50;;;8.70;99.90;;;;;;5013956;28;20475;-87
2022/09/30 07:49:24;;;;;;;6.10;2.78;;;8.80;99.90;;;;;;5012238;28;20480;-87
2022/09/30 07:51:51;;;;;;;6.32;3.08;;;8.90;99.90;;;;;;5004277;28;20107;-88
2022/09/30 07:54:21;;;;;;;6.75;3.15;;;8.90;99.90;;;;;;5009913;28;20052;-87
2022/09/30 07:56:47;;;;;;;7.70;3.40;;;9.00;99.90;;;;;;5012743;28;20124;-87
2022/09/30 07:59:13;;;;;;;8.38;3.70;;;9.00;99.90;;;;;;5022165;28;20505;-86
2022/09/30 08:01:39;;;;;;;7.97;3.67;;;9.00;99.90;;;;;;5022099;28;20029;-88
2022/09/30 08:04:07;;;;;;;7.20;3.42;;;9.50;99.90;;;;;;5008977;28;20033;-88
2022/09/30 08:06:39;;;;;;;8.70;3.83;;;9.30;99.90;;;;;;5027059;28;20187;-86
2022/09/30 08:09:05;;;;;;;9.07;4.07;;;9.30;99.90;;;;;;5009503;28;20095;-87
2022/09/30 08:11:35;;;;;;;7.50;3.75;;;9.60;99.90;;;;;;5008712;28;20029;-86
2022/09/30 08:14:02;;;;;;;9.98;4.13;;;9.50;99.90;;;;;;5011082;28;20033;-87
2022/09/30 08:16:28;;;;;;;7.15;3.83;;;9.50;99.90;;;;;;5008315;28;20041;-87
2022/09/30 08:18:55;;;;;;;10.93;4.20;;;9.60;99.90;;;;;;4998765;28;20076;-87
2022/09/30 08:21:21;;;;;;;8.98;4.10;;;9.70;99.90;;;;;;5004352;28;20038;-87
2022/09/30 08:23:47;;;;;;;9.60;4.18;;;9.80;99.90;;;;;;5006274;28;20397;-87
2022/09/30 08:26:14;;;;;;;8.70;4.30;;;9.90;99.90;;;;;;5012096;28;20025;-87
2022/09/30 08:28:39;;;;;;;7.95;3.70;;;9.90;99.90;;;;;;5009433;28;20030;-87
2022/09/30 08:31:07;;;;;;;9.35;3.88;;;10.00;99.90;;;;;;5012325;28;20029;-87
2022/09/30 08:33:36;;;;;;;7.50;3.78;;;10.30;99.90;;;;;;5011243;28;20056;-87
2022/09/30 08:36:07;;;;;;;8.45;3.65;;;10.10;99.90;;;;;;5016778;28;20030;-87
2022/09/30 08:38:34;;;;;;;10.77;4.28;;;10.10;99.90;;;;;;5004500;28;20033;-86
2022/09/30 08:41:17;;;;;;;9.30;4.18;;;10.10;99.90;;;;;;5011300;28;20068;-86
2022/09/30 08:43:53;;;;;;;8.52;4.10;;;10.20;99.90;;;;;;5007077;28;20041;-87
2022/09/30 08:46:43;;;;;;;10.05;4.15;;;10.20;99.90;;;;;;5011760;28;20025;-88
2022/09/30 08:49:34;;;;;;;8.45;3.90;;;10.20;99.90;;;;;;5011735;28;20117;-87
2022/09/30 08:52:01;;;;;;;8.48;4.45;;;10.30;99.90;;;;;;5011658;28;20417;-87
2022/09/30 08:54:33;;;;;;;8.30;4.60;;;10.30;99.90;;;;;;5029624;28;20017;-86
2022/09/30 08:57:04;;;;;;;9.57;4.57;;;10.40;99.90;;;;;;5010887;28;20037;-87
2022/09/30 08:59:41;;;;;;;8.90;4.35;;;10.50;99.90;;;;;;5024750;28;20026;-87
2022/09/30 09:02:26;;;;;;;9.85;4.43;;;10.60;99.90;;;;;;5009137;28;20035;-87
2022/09/30 09:04:56;;;;;;;10.25;4.88;;;10.70;99.90;;;;;;5011270;28;20032;-86
2022/09/30 09:07:53;;;;;;;8.25;4.45;;;10.80;99.90;;;;;;5027725;28;20083;-87
2022/09/30 09:10:43;;;;;;;10.68;4.05;;;11.10;99.90;;;;;;5009460;28;20453;-87
2022/09/30 09:13:34;;;;;;;8.60;4.13;;;11.30;99.90;;;;;;5026251;28;20025;-87
2022/09/30 09:16:10;;;;;;;8.40;3.80;;;11.60;99.90;;;;;;5010883;28;20040;-87
2022/09/30 09:18:45;;;;;;;8.50;4.72;;;11.90;99.90;;;;;;5028113;28;20022;-88
2022/09/30 09:21:26;;;;;;;9.52;3.97;;;12.10;99.90;;;;;;5011229;28;20025;-87
2022/09/30 09:23:55;;;;;;;9.27;3.85;;;12.40;99.90;;;;;;5010950;28;20029;-87
2022/09/30 09:26:23;;;;;;;7.85;3.90;;;12.60;99.90;;;;;;5027785;28;20026;-88
2022/09/30 09:29:14;;;;;;;7.18;2.75;;;12.80;99.90;;;;;;5010416;28;20056;-87
2022/09/30 09:31:40;;;;;;;5.75;2.28;;;13.10;99.90;;;;;;5010398;28;20026;-87
2022/09/30 09:34:11;;;;;;;5.75;2.92;;;13.20;99.90;;;;;;5028998;28;20029;-87
2022/09/30 09:37:09;;;;;;;7.78;3.13;;;13.70;99.90;;;;;;5011501;28;20041;-87
2022/09/30 09:39:41;;;;;;;7.05;2.90;;;13.40;99.90;;;;;;5027417;28;20049;-87
2022/09/30 09:42:31;;;;;;;5.70;2.63;;;13.40;99.90;;;;;;5011313;28;20050;-88
2022/09/30 09:45:12;;;;;;;5.32;2.22;;;13.40;99.90;;;;;;5022822;28;20100;-87
2022/09/30 09:47:38;;;;;;;4.80;2.13;;;13.40;99.90;;;;;;5006939;28;20069;-87
2022/09/30 09:50:13;;;;;;;4.13;1.80;;;13.50;99.90;;;;;;5010639;28;20021;-87
2022/09/30 09:53:05;;;;;;;4.88;2.30;;;13.50;99.90;;;;;;5005743;28;20777;-87
2022/09/30 09:55:33;;;;;;;4.55;2.08;;;13.60;99.90;;;;;;4983478;28;20030;-88
2022/09/30 09:58:16;;;;;;;4.60;2.53;;;13.60;99.90;;;;;;5029510;28;20057;-88
2022/09/30 10:03:22;;;;;;;4.75;2.67;;;13.80;99.90;;;;;;5036085;28;20021;-88
2022/09/30 10:06:11;;;;;;;6.05;2.75;;;14.00;99.90;;;;;;5015819;28;20048;-87
2022/09/30 10:08:54;;;;;;;7.03;2.50;;;14.10;99.90;;;;;;5015688;28;20034;-88
2022/09/30 10:11:24;;;;;;;5.28;2.13;;;14.50;99.90;;;;;;5032436;28;20510;-87
2022/09/30 10:13:55;;;;;;;5.72;2.40;;;14.00;99.90;;;;;;5030571;28;20087;-88
2022/09/30 10:16:34;;;;;;;5.57;2.65;;;14.10;99.90;;;;;;5034662;28;20030;-88
2022/09/30 10:19:02;;;;;;;8.55;2.60;;;13.80;99.90;;;;;;5009823;28;20034;-87
2022/09/30 10:21:29;;;;;;;5.13;2.47;;;14.10;99.90;;;;;;5027866;28;20025;-87
2022/09/30 10:23:58;;;;;;;4.85;2.50;;;13.90;99.90;;;;;;5015813;28;20100;-88
2022/09/30 10:26:26;;;;;;;9.48;2.72;;;13.70;99.90;;;;;;5015729;28;20478;-87
2022/09/30 10:29:00;;;;;;;9.85;2.67;;;14.10;99.90;;;;;;5032679;28;20037;-87
2022/09/30 10:31:32;;;;;;;4.60;2.22;;;14.00;99.90;;;;;;5014574;28;20078;-88
2022/09/30 10:34:12;;;;;;;4.65;2.17;;;14.10;99.90;;;;;;5011985;28;20055;-88
2022/09/30 10:36:42;;;;;;;5.85;2.38;;;14.20;99.90;;;;;;5011635;28;20153;-87
2022/09/30 10:39:23;;;;;;;5.18;2.33;;;14.30;99.90;;;;;;5010099;28;20028;-87
2022/09/30 10:41:59;;;;;;;5.00;2.15;;;14.30;99.90;;;;;;5027506;28;20040;-87
2022/09/30 10:44:25;;;;;;;5.55;2.55;;;14.50;99.90;;;;;;5012034;28;20505;-87
2022/09/30 10:46:57;;;;;;;6.35;2.00;;;14.70;99.90;;;;;;5029218;28;20029;-86
2022/09/30 10:49:27;;;;;;;3.70;1.70;;;14.50;99.90;;;;;;5008709;28;20037;-87
2022/09/30 10:51:55;;;;;;;3.80;1.58;;;14.70;99.90;;;;;;5008998;28;20036;-86
2022/09/30 10:54:39;;;;;;;3.92;1.60;;;15.00;99.90;;;;;;5009812;28;20116;-87
2022/09/30 10:57:15;;;;;;;3.88;1.70;;;15.10;99.90;;;;;;5013835;28;20029;-87
2022/09/30 10:59:42;;;;;;;3.83;1.55;;;15.10;99.90;;;;;;5030732;28;20075;-86
2022/09/30 11:02:32;;;;;;;3.97;1.38;;;15.10;99.90;;;;;;5026787;28;20045;-86
2022/09/30 11:05:17;;;;;;;3.45;1.38;;;15.40;99.90;;;;;;5014756;28;20075;-86
2022/09/30 11:07:53;;;;;;;3.40;1.40;;;15.50;99.90;;;;;;5031253;28;20042;-86
2022/09/30 11:10:31;;;;;;;3.72;1.75;;;15.60;99.90;;;;;;5013071;28;20018;-86
2022/09/30 11:13:05;;;;;;;5.25;2.22;;;15.70;99.90;;;;;;5032670;28;20026;-86
2022/09/30 11:16:13;;;;;;;3.75;1.20;;;15.80;99.90;;;;;;5012581;28;20032;-86
2022/09/30 11:18:57;;;;;;;3.00;1.58;;;15.80;99.90;;;;;;5031100;28;20018;-87
2022/09/30 11:21:32;;;;;;;2.70;0.93;;;15.80;99.90;;;;;;5012054;28;20064;-87
2022/09/30 11:24:13;;;;;;;2.55;1.05;;;16.20;99.90;;;;;;5031450;28;20028;-86
2022/09/30 11:26:42;;;;;;;3.30;1.20;;;15.80;99.90;;;;;;5031499;28;20032;-87
2022/09/30 11:29:17;;;;;;;3.53;1.20;;;15.90;99.90;;;;;;5006747;28;20022;-87
2022/09/30 11:32:10;;;;;;;3.92;1.20;;;15.90;99.90;;;;;;5029317;28;20017;-86
2022/09/30 11:34:48;;;;;;;2.45;0.98;;;15.90;99.90;;;;;;5029142;28;20021;-88
2022/09/30 11:37:35;;;;;;;2.38;0.80;;;16.00;99.90;;;;;;5014620;28;20025;-88
2022/09/30 11:40:32;;;;;;;1.83;0.77;;;16.00;99.90;;;;;;5030025;28;20393;-87
2022/09/30 11:43:25;;;;;;;1.90;0.80;;;16.20;99.90;;;;;;5031472;28;20029;-88
2022/09/30 11:46:33;;;;;;;1.50;0.60;;;16.30;99.90;;;;;;5011762;28;20030;-87
2022/09/30 11:49:25;;;;;;;1.35;0.63;;;16.50;99.90;;;;;;5011459;28;20447;-87
2022/09/30 11:52:22;;;;;;;1.60;0.80;;;16.50;99.90;;;;;;5009611;28;20025;-88
2022/09/30 11:54:58;;;;;;;1.88;0.40;;;16.60;99.90;;;;;;5013712;28;20021;-89
2022/09/30 11:57:34;;;;;;;1.88;0.57;;;16.70;99.90;;;;;;5028323;28;21200;-87
2022/09/30 12:00:19;;;;;;;1.38;0.47;;;16.70;99.90;;;;;;5012175;28;20033;-88
2022/09/30 12:03:00;;;;;;;2.53;0.68;;;16.60;99.90;;;;;;5028249;28;20025;-87
2022/09/30 12:05:38;;;;;;;2.22;0.75;;;16.70;99.90;;;;;;5011068;28;20103;-87
2022/09/30 12:08:45;;;;;;;1.33;0.50;;;16.60;99.90;;;;;;5009817;28;20042;-88
2022/09/30 12:11:21;;;;;;;1.52;0.52;;;16.40;99.90;;;;;;4968838;28;20034;-88
2022/09/30 12:13:56;;;;;;;1.17;0.45;;;16.50;99.90;;;;;;5024177;28;20076;-87
2022/09/30 12:16:28;;;;;;;3.35;0.50;;;16.80;99.90;;;;;;5029433;28;20486;-88
2022/09/30 12:19:00;;;;;;;1.50;0.40;;;16.90;99.90;;;;;;5011626;28;20075;-88
2022/09/30 12:21:32;;;;;;;1.42;0.50;;;17.00;99.90;;;;;;5030103;28;20018;-86
2022/09/30 12:24:10;;;;;;;1.75;0.70;;;16.70;99.90;;;;;;5010864;28;20064;-88
2022/09/30 12:26:36;;;;;;;1.50;0.60;;;16.80;99.90;;;;;;5013591;28;20056;-88
2022/09/30 12:32:22;;;;;;;2.33;0.60;;;16.70;99.90;;;;;;5033794;28;20119;-89
2022/09/30 12:35:27;;;;;;;1.13;0.40;;;16.80;99.90;;;;;;5032876;28;20025;-88
2022/09/30 12:38:04;;;;;;;0.90;0.38;;;17.00;99.90;;;;;;5022916;28;20044;-87
2022/09/30 12:40:47;;;;;;;1.08;0.40;;;17.00;99.90;;;;;;5029431;28;20498;-87
2022/09/30 12:43:37;;;;;;;1.42;0.60;;;17.00;99.90;;;;;;5017919;28;20367;-88
2022/09/30 12:46:40;;;;;;;1.05;0.40;;;17.20;99.90;;;;;;5031332;28;20083;-88
2022/09/30 12:49:13;;;;;;;0.75;0.32;;;17.30;99.90;;;;;;5014473;28;20021;-88
2022/09/30 12:51:42;;;;;;;1.17;0.35;;;17.40;99.70;;;;;;5016669;28;20032;-88
2022/09/30 12:54:36;;;;;;;1.08;0.38;;;17.50;98.20;;;;;;5029425;28;20044;-88
2022/09/30 12:57:30;;;;;;;0.82;0.40;;;17.70;98.70;;;;;;5002734;28;20033;-88
2022/09/30 13:00:01;;;;;;;0.80;0.40;;;17.70;98.30;;;;;;5009607;28;20517;-87
2022/09/30 13:02:35;;;;;;;2.25;0.30;;;17.80;96.90;;;;;;5010039;28;20112;-88
2022/09/30 13:05:25;;;;;;;0.43;0.22;;;17.80;95.90;;;;;;5012607;23;21854;-82
2022/09/30 13:08:03;;;;;;;0.80;0.30;;;18.10;97.80;;;;;;5029089;28;20398;-82
2022/09/30 13:10:33;;;;;;;1.75;0.60;;;18.10;96.40;;;;;;5030836;28;20056;-82
2022/09/30 13:13:23;;;;;;;0.95;0.30;;;18.30;96.50;;;;;;5028126;28;20029;-83
2022/09/30 13:15:55;;;;;;;0.80;0.30;;;18.50;96.70;;;;;;5027545;28;20746;-81
2022/09/30 13:18:21;;;;;;;1.20;0.38;;;18.60;97.20;;;;;;5026162;28;20563;-82
2022/09/30 13:20:53;;;;;;;1.85;0.75;;;18.70;96.70;;;;;;5027719;28;20133;-82
2022/09/30 13:23:38;;;;;;;0.98;0.30;;;18.90;97.10;;;;;;5025620;28;20044;-82
2022/09/30 13:26:25;;;;;;;3.30;0.40;;;18.90;96.70;;;;;;5029018;28;20035;-82
2022/09/30 13:28:53;;;;;;;1.77;0.35;;;19.00;96.60;;;;;;5024657;28;20029;-81